Time;durP1;ratioP1;P1;durP2;ratioP2;P2;SDS_P1;SDS_P2;PMS_P1;PMS_P2;Temp;Humidity;BMP_temperature;BMP_pressure;BME280_temperature;BME280_humidity;BME280_pressure;Samples;Min_cycle;Max_cycle;Signal;HPM_P1;HPM_P2
2023/06/08 00:00:50;;;;;;;15.82;8.27;;;16.80;90.00;;;;;;6215744;23;20180;-74
2023/06/08 00:03:19;;;;;;;13.20;8.50;;;16.70;90.10;;;;;;6215840;23;20084;-74
2023/06/08 00:05:49;;;;;;;9.95;8.10;;;16.70;90.20;;;;;;6243027;23;20000;-74
2023/06/08 00:08:15;;;;;;;16.40;8.35;;;16.70;90.20;;;;;;6242832;23;20315;-74
2023/06/08 00:10:45;;;;;;;14.52;9.43;;;16.60;90.30;;;;;;6243027;23;20010;-74
2023/06/08 00:13:12;;;;;;;16.30;9.15;;;16.60;90.50;;;;;;6215992;23;20016;-74
2023/06/08 00:15:39;;;;;;;12.77;8.68;;;16.60;90.50;;;;;;6242602;23;20000;-74
2023/06/08 00:18:07;;;;;;;15.07;8.75;;;16.50;90.50;;;;;;6242940;23;20031;-74
2023/06/08 00:20:34;;;;;;;13.70;9.25;;;16.50;90.80;;;;;;6216025;23;20000;-74
2023/06/08 00:23:00;;;;;;;14.63;9.07;;;16.50;90.70;;;;;;6242942;23;20072;-74
2023/06/08 00:25:26;;;;;;;15.63;8.90;;;16.50;90.80;;;;;;6242860;23;20446;-74
2023/06/08 00:27:51;;;;;;;20.50;9.50;;;16.40;90.90;;;;;;6242648;23;20279;-74
2023/06/08 00:30:17;;;;;;;15.90;9.60;;;16.40;90.90;;;;;;6242158;23;20007;-75
2023/06/08 00:32:42;;;;;;;16.05;9.30;;;16.40;91.00;;;;;;6215953;23;20007;-74
2023/06/08 00:35:08;;;;;;;17.17;10.05;;;16.40;91.20;;;;;;6243008;23;20426;-73
2023/06/08 00:37:35;;;;;;;13.60;8.98;;;16.40;91.30;;;;;;6242900;23;20379;-75
2023/06/08 00:40:04;;;;;;;13.55;8.18;;;16.30;91.30;;;;;;6242900;23;20070;-74
2023/06/08 00:42:30;;;;;;;17.20;8.85;;;16.30;91.30;;;;;;6242982;23;19996;-74
2023/06/08 00:44:55;;;;;;;22.98;9.77;;;16.30;91.40;;;;;;6242171;23;20032;-74
2023/06/08 00:47:21;;;;;;;13.43;8.80;;;16.20;91.50;;;;;;6215664;23;20138;-74
2023/06/08 00:49:47;;;;;;;15.85;7.85;;;16.20;91.60;;;;;;6242701;23;19996;-74
2023/06/08 00:52:14;;;;;;;21.40;10.27;;;16.20;91.60;;;;;;6242619;23;20007;-73
2023/06/08 00:54:39;;;;;;;17.88;9.23;;;16.10;91.70;;;;;;6242721;23;20004;-73
2023/06/08 00:57:06;;;;;;;13.13;9.55;;;16.10;91.80;;;;;;6214464;23;20063;-74
2023/06/08 00:59:32;;;;;;;15.70;9.73;;;16.00;91.90;;;;;;6215487;23;20426;-74
2023/06/08 01:01:58;;;;;;;18.25;10.27;;;16.00;92.00;;;;;;6242018;23;19996;-74
2023/06/08 01:04:25;;;;;;;16.38;10.25;;;16.00;92.10;;;;;;6242381;23;20086;-74
2023/06/08 01:07:14;;;;;;;16.38;9.60;;;15.90;92.10;;;;;;6242467;23;20473;-74
2023/06/08 01:10:13;;;;;;;15.32;9.02;;;15.90;92.30;;;;;;6242528;23;20099;-74
2023/06/08 01:13:02;;;;;;;16.98;9.55;;;15.80;92.40;;;;;;6242105;23;19998;-75
2023/06/08 01:15:37;;;;;;;14.88;9.55;;;15.80;92.50;;;;;;6242453;23;20000;-74
2023/06/08 01:18:07;;;;;;;19.73;11.52;;;15.70;92.60;;;;;;6215660;23;20000;-73
2023/06/08 01:20:46;;;;;;;21.65;11.05;;;15.70;92.70;;;;;;6243053;23;20019;-74
2023/06/08 01:23:49;;;;;;;20.48;10.73;;;15.70;92.80;;;;;;6243075;23;20007;-75
2023/06/08 01:26:18;;;;;;;17.40;10.10;;;15.60;93.00;;;;;;6242481;23;19996;-74
2023/06/08 01:28:48;;;;;;;19.80;10.77;;;15.60;93.00;;;;;;6242161;23;20023;-74
2023/06/08 01:31:14;;;;;;;13.85;9.43;;;15.60;93.00;;;;;;6241801;23;20010;-74
2023/06/08 01:33:39;;;;;;;16.65;11.48;;;15.60;93.10;;;;;;6242062;23;20000;-74
2023/06/08 01:36:28;;;;;;;22.30;12.30;;;15.50;93.30;;;;;;6214998;23;20004;-74
2023/06/08 01:39:07;;;;;;;22.38;10.90;;;15.40;93.40;;;;;;6215570;23;20008;-74
2023/06/08 01:41:36;;;;;;;20.60;10.85;;;15.30;93.50;;;;;;6241950;23;20099;-74
2023/06/08 01:44:05;;;;;;;20.25;11.43;;;15.30;93.70;;;;;;6215467;23;20345;-75
2023/06/08 01:46:31;;;;;;;26.13;11.70;;;15.20;93.90;;;;;;6242420;23;20011;-74
2023/06/08 01:48:59;;;;;;;16.42;11.40;;;15.10;94.10;;;;;;6214982;23;20016;-74
2023/06/08 01:51:26;;;;;;;19.83;11.77;;;15.10;94.20;;;;;;6242201;23;20000;-74
2023/06/08 01:54:02;;;;;;;17.92;10.68;;;15.10;94.30;;;;;;6214908;23;20008;-74
2023/06/08 01:56:33;;;;;;;19.70;11.38;;;15.10;94.40;;;;;;6241320;23;20031;-74
2023/06/08 01:58:59;;;;;;;20.92;12.30;;;15.20;94.70;;;;;;6242037;23;20402;-74
2023/06/08 02:01:25;;;;;;;22.02;11.27;;;15.20;94.50;;;;;;6241733;23;20084;-74
2023/06/08 02:03:50;;;;;;;18.35;9.93;;;15.20;94.60;;;;;;6214919;23;20198;-74
2023/06/08 02:06:16;;;;;;;20.38;12.15;;;15.20;94.60;;;;;;6214735;23;20004;-74
2023/06/08 02:08:42;;;;;;;19.63;12.13;;;15.20;94.70;;;;;;6214903;23;20067;-74
2023/06/08 02:11:09;;;;;;;18.98;11.27;;;15.10;94.80;;;;;;6214428;23;20007;-74
2023/06/08 02:13:38;;;;;;;13.35;9.20;;;15.10;94.90;;;;;;6215006;23;20004;-75
2023/06/08 02:16:04;;;;;;;18.20;10.27;;;15.10;94.90;;;;;;6241859;23;20012;-74
2023/06/08 02:18:30;;;;;;;17.27;12.00;;;15.10;94.90;;;;;;6215011;23;20087;-74
2023/06/08 02:20:56;;;;;;;20.65;13.63;;;15.00;95.00;;;;;;6214928;23;20010;-74
2023/06/08 02:23:21;;;;;;;19.35;11.30;;;15.00;95.20;;;;;;6241494;23;20000;-74
2023/06/08 02:25:50;;;;;;;23.80;13.45;;;15.00;95.30;;;;;;6241130;23;19995;-74
2023/06/08 02:28:15;;;;;;;18.52;11.32;;;14.90;95.40;;;;;;6241553;23;20091;-74
2023/06/08 02:30:42;;;;;;;18.60;11.32;;;14.90;95.40;;;;;;6215175;23;20103;-74
2023/06/08 02:33:08;;;;;;;17.70;10.35;;;15.00;95.40;;;;;;6214903;23;20070;-74
2023/06/08 02:35:33;;;;;;;20.05;11.88;;;15.00;95.50;;;;;;6241528;23;20498;-74
2023/06/08 02:38:00;;;;;;;18.27;11.73;;;14.90;95.40;;;;;;6241456;23;20000;-74
2023/06/08 02:40:25;;;;;;;20.58;12.13;;;15.00;95.50;;;;;;6240761;23;20008;-76
2023/06/08 02:42:51;;;;;;;18.35;12.40;;;15.00;95.50;;;;;;6241593;23;20418;-74
2023/06/08 02:45:17;;;;;;;20.90;12.82;;;14.90;95.60;;;;;;6213286;23;20310;-74
2023/06/08 02:47:42;;;;;;;18.50;11.38;;;15.00;95.60;;;;;;6240438;23;20000;-74
2023/06/08 02:50:08;;;;;;;20.35;11.65;;;14.90;95.60;;;;;;6240455;23;20043;-74
2023/06/08 02:52:34;;;;;;;16.00;12.00;;;14.90;95.60;;;;;;6239687;23;20023;-75
2023/06/08 02:54:59;;;;;;;15.80;11.30;;;14.90;95.70;;;;;;6239315;23;20394;-74
2023/06/08 02:57:25;;;;;;;21.27;12.48;;;14.80;95.70;;;;;;6241179;23;20086;-74
2023/06/08 02:59:50;;;;;;;18.08;11.98;;;14.90;95.80;;;;;;6214460;23;20078;-74
2023/06/08 03:02:16;;;;;;;18.50;10.57;;;14.90;95.90;;;;;;6214292;23;20028;-74
2023/06/08 03:04:43;;;;;;;21.27;11.77;;;14.90;95.80;;;;;;6240983;23;20430;-74
2023/06/08 03:07:10;;;;;;;16.52;10.65;;;14.80;95.80;;;;;;6214528;23;20390;-74
2023/06/08 03:09:36;;;;;;;21.70;11.82;;;14.80;95.80;;;;;;6240839;23;19996;-74
2023/06/08 03:12:02;;;;;;;15.98;10.73;;;14.80;95.90;;;;;;6241424;23;20023;-74
2023/06/08 03:14:29;;;;;;;17.17;12.55;;;14.80;95.90;;;;;;6241020;23;20460;-74
2023/06/08 03:16:57;;;;;;;24.65;13.23;;;14.80;96.00;;;;;;6239489;23;20004;-74
2023/06/08 03:19:24;;;;;;;15.30;11.82;;;14.70;96.00;;;;;;6240054;23;20011;-74
2023/06/08 03:21:50;;;;;;;17.27;11.88;;;14.70;96.00;;;;;;6213271;23;20460;-74
2023/06/08 03:24:17;;;;;;;15.75;11.20;;;14.70;96.10;;;;;;6212984;23;20016;-74
2023/06/08 03:26:43;;;;;;;15.73;11.48;;;14.60;96.20;;;;;;6241387;23;20071;-74
2023/06/08 03:29:08;;;;;;;17.98;11.50;;;14.60;96.20;;;;;;6241181;23;20048;-74
2023/06/08 03:31:36;;;;;;;20.33;12.07;;;14.50;96.30;;;;;;6214476;23;20001;-74
2023/06/08 03:34:04;;;;;;;20.27;13.27;;;14.50;96.30;;;;;;6241488;23;20008;-74
2023/06/08 03:36:33;;;;;;;24.52;12.85;;;14.40;96.40;;;;;;6213574;23;20011;-74
2023/06/08 03:39:02;;;;;;;20.77;12.77;;;14.40;96.60;;;;;;6213249;23;20004;-74
2023/06/08 03:41:28;;;;;;;17.13;12.85;;;14.30;96.70;;;;;;6213654;23;20389;-75
2023/06/08 03:43:54;;;;;;;20.85;13.60;;;14.30;96.70;;;;;;6213643;23;20079;-73
2023/06/08 03:46:20;;;;;;;23.38;13.38;;;14.30;96.90;;;;;;6213923;23;20079;-74
2023/06/08 03:48:47;;;;;;;14.85;11.65;;;14.20;96.90;;;;;;6240698;23;20027;-74
2023/06/08 03:51:13;;;;;;;17.95;13.98;;;14.20;97.00;;;;;;6240270;23;20024;-74
2023/06/08 03:53:38;;;;;;;22.52;13.35;;;14.10;97.10;;;;;;6240858;23;20018;-74
2023/06/08 03:56:04;;;;;;;20.75;12.95;;;14.10;97.10;;;;;;6241152;23;20004;-75
2023/06/08 03:58:30;;;;;;;23.58;13.40;;;14.10;97.20;;;;;;6241122;23;20194;-74
2023/06/08 04:00:56;;;;;;;20.42;14.27;;;14.10;97.30;;;;;;6214259;23;20079;-75
2023/06/08 04:03:24;;;;;;;18.48;14.35;;;14.10;97.30;;;;;;6213863;23;20070;-75
2023/06/08 04:05:51;;;;;;;21.75;14.00;;;14.10;97.30;;;;;;6213426;23;20030;-75
2023/06/08 04:08:17;;;;;;;22.33;14.48;;;14.10;97.40;;;;;;6240872;23;20012;-75
2023/06/08 04:10:43;;;;;;;29.50;15.38;;;14.10;97.40;;;;;;6241007;23;20306;-74
2023/06/08 04:13:08;;;;;;;20.13;14.25;;;14.10;97.40;;;;;;6241317;23;20011;-75
2023/06/08 04:15:34;;;;;;;26.35;15.57;;;14.00;97.50;;;;;;6214273;23;20004;-74
2023/06/08 04:18:03;;;;;;;20.35;14.90;;;14.10;97.60;;;;;;6214002;23;20034;-75
2023/06/08 04:20:28;;;;;;;18.25;13.48;;;14.10;97.60;;;;;;6213561;23;20032;-75
2023/06/08 04:22:54;;;;;;;23.75;15.23;;;14.10;97.60;;;;;;6240972;23;19996;-75
2023/06/08 04:25:24;;;;;;;22.02;14.40;;;14.20;97.70;;;;;;6240966;23;20003;-75
2023/06/08 04:27:51;;;;;;;20.08;14.88;;;14.20;97.70;;;;;;6240985;23;20016;-75
2023/06/08 04:30:17;;;;;;;22.70;14.68;;;14.20;97.60;;;;;;6240825;23;20012;-75
2023/06/08 04:32:42;;;;;;;25.08;16.10;;;14.20;97.70;;;;;;6240882;23;20004;-75
2023/06/08 04:35:08;;;;;;;24.33;16.08;;;14.20;97.70;;;;;;6214486;23;20011;-74
2023/06/08 04:37:34;;;;;;;19.00;15.18;;;14.20;97.70;;;;;;6242905;23;20019;-75
2023/06/08 04:40:01;;;;;;;20.83;16.08;;;14.20;97.80;;;;;;6242785;23;20004;-75
2023/06/08 04:42:27;;;;;;;24.80;16.23;;;14.20;97.80;;;;;;6242812;23;20087;-75
2023/06/08 04:44:53;;;;;;;27.45;17.15;;;14.20;97.80;;;;;;6242709;23;20169;-74
2023/06/08 04:47:19;;;;;;;23.77;16.38;;;14.20;97.80;;;;;;6215403;23;20004;-75
2023/06/08 04:49:44;;;;;;;21.42;17.27;;;14.20;97.80;;;;;;6215248;23;20549;-74
2023/06/08 04:52:13;;;;;;;22.67;17.98;;;14.20;97.90;;;;;;6215775;23;20004;-75
2023/06/08 04:54:39;;;;;;;18.90;16.42;;;14.20;98.00;;;;;;6242736;23;20004;-75
2023/06/08 04:57:08;;;;;;;25.35;17.45;;;14.20;98.00;;;;;;6215536;23;20000;-74
2023/06/08 04:59:37;;;;;;;29.15;17.48;;;14.30;98.00;;;;;;6215502;23;20000;-75
2023/06/08 05:02:03;;;;;;;23.85;16.30;;;14.30;97.90;;;;;;6242606;23;20007;-75
2023/06/08 05:04:29;;;;;;;26.27;16.67;;;14.40;97.90;;;;;;6241843;23;20070;-74
2023/06/08 05:06:54;;;;;;;25.88;18.00;;;14.40;97.80;;;;;;6242292;23;20357;-74
2023/06/08 05:09:20;;;;;;;24.23;16.52;;;14.40;97.80;;;;;;6242532;23;20023;-74
2023/06/08 05:11:47;;;;;;;20.27;16.48;;;14.50;97.80;;;;;;6242429;23;20003;-75
2023/06/08 05:14:13;;;;;;;25.30;17.17;;;14.50;97.70;;;;;;6242223;23;20004;-75
2023/06/08 05:16:38;;;;;;;22.42;16.00;;;14.60;97.70;;;;;;6242296;23;20016;-74
2023/06/08 05:19:08;;;;;;;18.13;15.95;;;14.60;97.60;;;;;;6241789;23;20008;-75
2023/06/08 05:21:36;;;;;;;20.63;14.32;;;14.60;97.60;;;;;;6242322;23;20004;-71
2023/06/08 05:24:02;;;;;;;19.55;16.35;;;14.60;97.60;;;;;;6242501;23;20054;-72
2023/06/08 05:26:27;;;;;;;25.38;16.20;;;14.70;97.50;;;;;;6242452;23;20372;-71
2023/06/08 05:28:53;;;;;;;25.83;17.35;;;14.80;97.40;;;;;;6242182;23;20381;-71
2023/06/08 05:31:18;;;;;;;21.95;16.58;;;14.90;97.40;;;;;;6242231;23;20028;-71
2023/06/08 05:33:44;;;;;;;19.45;14.63;;;14.90;97.30;;;;;;6241773;23;20445;-71
2023/06/08 05:36:12;;;;;;;20.60;15.18;;;15.00;97.30;;;;;;6242459;23;20003;-71
2023/06/08 05:38:37;;;;;;;19.80;16.73;;;14.90;97.10;;;;;;6214636;23;20004;-72
2023/06/08 05:41:03;;;;;;;18.25;15.10;;;15.00;97.10;;;;;;6242305;23;20011;-72
2023/06/08 05:43:28;;;;;;;16.85;14.57;;;15.00;97.10;;;;;;6214947;23;20004;-71
2023/06/08 05:45:54;;;;;;;24.30;16.52;;;15.00;97.10;;;;;;6215018;23;20001;-71
2023/06/08 05:48:19;;;;;;;21.35;14.80;;;15.00;97.10;;;;;;6241121;23;20004;-72
2023/06/08 05:50:45;;;;;;;25.30;16.92;;;15.10;97.10;;;;;;6242164;23;20079;-72
2023/06/08 05:53:10;;;;;;;20.10;14.65;;;15.20;96.90;;;;;;6241885;23;20004;-72
2023/06/08 05:55:36;;;;;;;20.52;14.35;;;15.20;96.70;;;;;;6241848;23;20007;-72
2023/06/08 05:58:02;;;;;;;21.55;14.90;;;15.30;96.70;;;;;;6214896;23;20015;-72
2023/06/08 06:00:27;;;;;;;19.15;15.02;;;15.40;96.60;;;;;;6240814;23;20031;-72
2023/06/08 06:02:53;;;;;;;21.05;13.70;;;15.40;96.50;;;;;;6241488;23;20072;-72
2023/06/08 06:05:20;;;;;;;19.58;14.20;;;15.50;96.40;;;;;;6241869;23;20425;-72
2023/06/08 06:07:46;;;;;;;18.58;13.38;;;15.60;96.30;;;;;;6242165;23;20008;-72
2023/06/08 06:10:11;;;;;;;19.00;13.80;;;15.70;96.20;;;;;;6214803;23;20500;-72
2023/06/08 06:12:37;;;;;;;20.40;14.98;;;15.80;96.10;;;;;;6242166;23;20003;-72
2023/06/08 06:15:03;;;;;;;16.60;12.95;;;15.80;96.00;;;;;;6242214;23;20004;-72
2023/06/08 06:17:28;;;;;;;20.85;13.80;;;15.90;95.90;;;;;;6241519;23;20079;-72
2023/06/08 06:19:54;;;;;;;19.80;13.63;;;15.90;95.80;;;;;;6241877;23;20004;-72
2023/06/08 06:22:19;;;;;;;17.63;14.32;;;16.00;95.70;;;;;;6241690;23;20004;-72
2023/06/08 06:24:45;;;;;;;17.10;12.57;;;16.00;95.40;;;;;;6241995;23;20004;-72
2023/06/08 06:27:13;;;;;;;24.08;14.55;;;16.00;95.40;;;;;;6241619;23;20373;-72
2023/06/08 06:29:39;;;;;;;19.35;13.63;;;16.00;95.30;;;;;;6241767;23;20014;-72
2023/06/08 06:32:05;;;;;;;18.45;12.95;;;16.10;95.20;;;;;;6241413;23;20028;-72
2023/06/08 06:34:31;;;;;;;15.10;12.20;;;16.20;95.10;;;;;;6241846;23;20008;-72
2023/06/08 06:36:59;;;;;;;16.98;12.60;;;16.20;95.00;;;;;;6241435;23;20012;-72
2023/06/08 06:39:25;;;;;;;16.95;12.45;;;16.30;94.90;;;;;;6241531;23;20003;-72
2023/06/08 06:41:50;;;;;;;17.75;13.73;;;16.40;95.00;;;;;;6241545;23;20076;-72
2023/06/08 06:44:16;;;;;;;15.45;12.18;;;16.40;94.80;;;;;;6241479;23;20004;-72
2023/06/08 06:46:42;;;;;;;15.55;11.93;;;16.50;94.80;;;;;;6214010;23;19999;-72
2023/06/08 06:49:07;;;;;;;13.90;12.27;;;16.60;94.70;;;;;;6241340;23;20007;-72
2023/06/08 06:51:33;;;;;;;18.17;12.45;;;16.60;94.70;;;;;;6241449;23;20441;-72
2023/06/08 06:53:58;;;;;;;14.05;12.02;;;16.70;94.50;;;;;;6214618;23;20414;-72
2023/06/08 06:56:24;;;;;;;15.77;11.75;;;16.80;94.40;;;;;;6241245;23;20353;-71
2023/06/08 06:58:52;;;;;;;15.38;12.60;;;16.90;94.20;;;;;;6241174;23;20011;-72
2023/06/08 07:01:18;;;;;;;16.77;12.35;;;16.90;94.10;;;;;;6213979;23;20004;-72
2023/06/08 07:03:44;;;;;;;19.83;12.13;;;17.00;94.00;;;;;;6241080;23;20054;-72
2023/06/08 07:06:11;;;;;;;16.80;11.35;;;17.10;93.90;;;;;;6240739;23;20000;-72
2023/06/08 07:08:36;;;;;;;13.80;10.63;;;17.10;93.90;;;;;;6214322;23;20000;-72
2023/06/08 07:11:02;;;;;;;20.50;11.57;;;17.30;93.80;;;;;;6241268;23;20325;-72
2023/06/08 07:13:28;;;;;;;12.98;9.95;;;17.40;93.50;;;;;;6240438;23;20422;-72
2023/06/08 07:15:54;;;;;;;22.27;12.55;;;17.50;93.40;;;;;;6240922;23;20027;-72
2023/06/08 07:18:20;;;;;;;17.90;11.77;;;17.60;93.00;;;;;;6214563;23;20000;-72
2023/06/08 07:20:45;;;;;;;16.38;12.88;;;17.70;92.60;;;;;;6241120;23;20007;-72
2023/06/08 07:23:11;;;;;;;13.57;11.93;;;17.80;92.20;;;;;;6214396;23;20000;-72
2023/06/08 07:25:40;;;;;;;18.95;11.38;;;17.80;92.00;;;;;;6241199;23;20008;-72
2023/06/08 07:28:06;;;;;;;15.65;11.30;;;17.80;92.10;;;;;;6240639;23;20374;-71
2023/06/08 07:30:32;;;;;;;12.40;11.15;;;17.80;91.90;;;;;;6240792;23;19996;-72
2023/06/08 07:32:58;;;;;;;17.33;11.68;;;17.80;91.90;;;;;;6241122;23;20006;-72
2023/06/08 07:35:24;;;;;;;17.48;11.02;;;17.90;91.90;;;;;;6240740;23;20000;-72
2023/06/08 07:37:50;;;;;;;11.40;10.15;;;18.00;91.80;;;;;;6239531;23;20000;-72
2023/06/08 07:40:17;;;;;;;15.15;10.20;;;18.10;91.60;;;;;;6239910;23;20016;-71
2023/06/08 07:42:43;;;;;;;13.65;9.75;;;18.20;91.60;;;;;;6240526;23;20057;-72
2023/06/08 07:45:09;;;;;;;14.95;11.43;;;18.30;91.60;;;;;;6240180;23;20039;-72
2023/06/08 07:47:35;;;;;;;11.77;10.00;;;18.50;91.40;;;;;;6214009;23;20028;-72
2023/06/08 07:50:00;;;;;;;13.23;10.80;;;18.50;91.30;;;;;;6211217;23;20057;-72
2023/06/08 07:52:26;;;;;;;12.88;11.15;;;18.50;91.10;;;;;;6239416;23;20074;-73
2023/06/08 07:54:52;;;;;;;13.80;11.02;;;18.50;90.90;;;;;;6240588;23;20004;-72
2023/06/08 07:57:18;;;;;;;15.65;11.80;;;18.50;90.90;;;;;;6212316;23;20012;-72
2023/06/08 07:59:44;;;;;;;11.48;9.07;;;18.50;90.90;;;;;;6239939;23;20004;-72
2023/06/08 08:02:10;;;;;;;12.65;9.20;;;18.50;90.80;;;;;;6240920;23;20338;-73
2023/06/08 08:04:36;;;;;;;13.57;10.32;;;18.60;90.70;;;;;;6240740;23;20010;-72
2023/06/08 08:07:02;;;;;;;13.27;10.00;;;18.60;90.50;;;;;;6213777;23;20004;-72
2023/06/08 08:09:27;;;;;;;13.98;9.48;;;18.70;90.50;;;;;;6239430;23;20472;-72
2023/06/08 08:11:53;;;;;;;20.38;10.02;;;18.80;90.40;;;;;;6239970;23;20088;-72
2023/06/08 08:14:19;;;;;;;14.70;10.55;;;18.80;90.20;;;;;;6241442;23;20506;-72
2023/06/08 08:16:44;;;;;;;11.63;9.07;;;18.80;90.00;;;;;;6241897;23;20000;-72
2023/06/08 08:19:10;;;;;;;12.98;11.35;;;18.80;90.00;;;;;;6241586;23;20408;-72
2023/06/08 08:21:35;;;;;;;14.75;10.90;;;18.80;89.80;;;;;;6240967;23;20031;-72
2023/06/08 08:24:01;;;;;;;19.33;10.98;;;19.00;90.00;;;;;;6242005;23;20008;-73
2023/06/08 08:26:28;;;;;;;12.23;9.77;;;19.20;90.00;;;;;;6242513;23;20004;-72
2023/06/08 08:28:55;;;;;;;14.35;10.20;;;19.30;89.80;;;;;;6241806;23;20111;-73
2023/06/08 08:31:21;;;;;;;15.52;10.07;;;19.40;89.50;;;;;;6240310;23;20442;-72
2023/06/08 08:33:46;;;;;;;14.82;9.60;;;19.50;89.10;;;;;;6242319;23;20066;-72
2023/06/08 08:36:12;;;;;;;12.15;9.35;;;19.60;88.50;;;;;;6242543;23;20000;-72
2023/06/08 08:38:40;;;;;;;14.15;9.32;;;19.70;88.30;;;;;;6242236;23;20130;-72
2023/06/08 08:41:08;;;;;;;11.88;8.43;;;19.80;87.90;;;;;;6241440;23;20000;-72
2023/06/08 08:43:45;;;;;;;14.68;10.13;;;19.80;87.50;;;;;;6241933;23;20150;-72
2023/06/08 08:46:12;;;;;;;16.85;9.20;;;19.90;87.10;;;;;;6242244;23;20004;-72
2023/06/08 08:48:44;;;;;;;13.95;9.95;;;19.80;86.80;;;;;;6242064;23;20004;-72
2023/06/08 08:51:20;;;;;;;10.73;8.13;;;19.80;87.10;;;;;;6241566;23;20070;-72
2023/06/08 08:53:50;;;;;;;15.18;10.65;;;19.90;86.90;;;;;;6240013;23;20031;-72
2023/06/08 08:56:25;;;;;;;11.05;8.02;;;19.90;86.70;;;;;;6213230;23;20054;-72
2023/06/08 08:58:51;;;;;;;14.30;10.00;;;20.00;86.30;;;;;;6241795;23;20004;-72
2023/06/08 09:01:18;;;;;;;16.80;9.50;;;20.00;86.10;;;;;;6240288;23;20004;-72
2023/06/08 09:03:44;;;;;;;12.70;9.05;;;20.00;86.10;;;;;;6212364;23;20051;-72
2023/06/08 09:06:10;;;;;;;11.18;8.23;;;20.10;86.20;;;;;;6241538;23;20325;-72
2023/06/08 09:08:35;;;;;;;12.57;8.93;;;20.10;85.90;;;;;;6242823;23;20004;-72
2023/06/08 09:11:04;;;;;;;14.40;10.27;;;20.20;85.80;;;;;;6241761;23;20399;-72
2023/06/08 09:13:31;;;;;;;15.13;8.68;;;20.20;85.40;;;;;;6242929;23;20070;-72
2023/06/08 09:16:07;;;;;;;15.70;9.43;;;20.40;85.60;;;;;;6240342;23;20477;-72
2023/06/08 09:18:33;;;;;;;11.07;8.15;;;20.50;85.10;;;;;;6241415;23;20069;-72
2023/06/08 09:20:58;;;;;;;14.77;9.05;;;20.50;84.60;;;;;;6241372;23;20036;-72
2023/06/08 09:23:25;;;;;;;14.13;9.27;;;20.50;84.60;;;;;;6240707;23;20004;-72
2023/06/08 09:25:54;;;;;;;13.02;9.35;;;20.50;84.10;;;;;;6239385;23;20110;-72
2023/06/08 09:28:32;;;;;;;14.32;9.27;;;20.60;84.00;;;;;;6241595;23;20012;-72
2023/06/08 09:30:57;;;;;;;13.98;9.38;;;20.70;83.50;;;;;;6242448;23;20010;-72
2023/06/08 09:33:26;;;;;;;15.00;8.35;;;20.60;82.70;;;;;;6240664;23;20028;-73
2023/06/08 09:35:58;;;;;;;13.07;8.93;;;20.60;82.60;;;;;;6241048;23;20410;-72
2023/06/08 09:38:27;;;;;;;11.57;8.65;;;20.60;82.60;;;;;;6240776;23;20004;-72
2023/06/08 09:41:11;;;;;;;12.88;8.77;;;20.80;82.70;;;;;;6240464;23;20011;-72
2023/06/08 09:43:37;;;;;;;9.18;6.75;;;21.00;81.90;;;;;;6241204;23;20046;-73
2023/06/08 09:46:02;;;;;;;13.90;8.52;;;21.10;81.70;;;;;;6214401;23;19996;-73
2023/06/08 09:48:28;;;;;;;11.45;7.25;;;21.00;81.30;;;;;;6238619;23;20615;-73
2023/06/08 09:51:00;;;;;;;10.63;8.43;;;21.00;81.50;;;;;;6240728;23;20019;-72
2023/06/08 09:53:27;;;;;;;13.43;8.38;;;21.00;81.10;;;;;;6214208;23;20334;-73
2023/06/08 09:55:54;;;;;;;13.50;9.23;;;20.90;81.20;;;;;;6241005;23;20055;-73
2023/06/08 09:58:27;;;;;;;13.95;9.25;;;20.80;81.20;;;;;;6212554;23;20430;-73
2023/06/08 10:01:00;;;;;;;11.35;7.53;;;20.80;81.60;;;;;;6240924;23;20008;-73
2023/06/08 10:03:36;;;;;;;12.20;8.43;;;21.00;81.90;;;;;;6213111;23;20452;-73
2023/06/08 10:06:05;;;;;;;12.48;8.73;;;21.00;82.00;;;;;;6241385;23;20343;-74
2023/06/08 10:08:31;;;;;;;13.73;7.35;;;21.20;81.90;;;;;;6241120;23;20012;-73
2023/06/08 10:10:58;;;;;;;12.20;8.40;;;21.40;82.20;;;;;;6240145;23;20418;-73
2023/06/08 10:13:24;;;;;;;16.17;7.40;;;21.50;81.50;;;;;;6241620;23;20003;-73
2023/06/08 10:15:51;;;;;;;9.02;7.35;;;21.60;80.80;;;;;;6241691;23;20330;-73
2023/06/08 10:18:17;;;;;;;12.43;7.93;;;21.70;80.50;;;;;;6241371;23;20007;-73
2023/06/08 10:20:43;;;;;;;9.50;8.15;;;21.80;80.30;;;;;;6239870;23;20004;-73
2023/06/08 10:23:09;;;;;;;9.05;6.97;;;21.90;80.00;;;;;;6241253;23;20000;-72
2023/06/08 10:25:36;;;;;;;11.02;6.75;;;22.00;79.90;;;;;;6241609;23;20042;-73
2023/06/08 10:28:09;;;;;;;9.77;7.05;;;22.10;79.80;;;;;;6241760;23;20070;-73
2023/06/08 10:30:41;;;;;;;11.98;7.60;;;22.20;79.60;;;;;;6241326;23;20004;-73
2023/06/08 10:33:10;;;;;;;11.13;7.40;;;22.30;79.70;;;;;;6240646;23;20083;-73
2023/06/08 10:35:37;;;;;;;11.60;7.10;;;22.40;80.00;;;;;;6241910;23;20233;-73
2023/06/08 10:38:09;;;;;;;11.43;8.65;;;22.50;79.70;;;;;;6241026;23;20075;-73
2023/06/08 10:40:51;;;;;;;13.30;8.67;;;22.70;78.70;;;;;;6241650;23;20008;-73
2023/06/08 10:43:21;;;;;;;11.30;7.13;;;22.80;79.00;;;;;;6239881;23;20079;-73
2023/06/08 10:45:48;;;;;;;10.23;7.28;;;22.90;79.40;;;;;;6214960;23;20012;-73
2023/06/08 10:48:18;;;;;;;14.10;8.15;;;23.10;79.10;;;;;;6241238;23;20024;-72
2023/06/08 10:50:53;;;;;;;12.60;7.22;;;23.20;79.00;;;;;;6240568;23;20323;-73
2023/06/08 10:53:22;;;;;;;11.27;7.78;;;23.40;78.10;;;;;;6212220;23;20062;-72
2023/06/08 10:55:49;;;;;;;11.32;7.22;;;23.40;77.20;;;;;;6241005;23;20121;-72
2023/06/08 10:58:20;;;;;;;6.88;5.88;;;23.50;76.90;;;;;;6241073;23;20000;-73
2023/06/08 11:00:50;;;;;;;10.35;6.43;;;23.60;76.90;;;;;;6241047;23;20004;-72
2023/06/08 11:03:18;;;;;;;12.90;6.68;;;23.60;76.60;;;;;;6241160;23;20050;-73
2023/06/08 11:05:48;;;;;;;9.05;6.47;;;23.60;76.90;;;;;;6238573;23;20004;-73
2023/06/08 11:08:14;;;;;;;7.30;5.53;;;23.70;76.80;;;;;;6240586;23;19997;-72
2023/06/08 11:10:40;;;;;;;8.55;6.53;;;23.70;76.40;;;;;;6214311;23;20001;-72
2023/06/08 11:13:07;;;;;;;10.52;5.05;;;23.70;76.60;;;;;;6241634;23;20003;-73
2023/06/08 11:15:37;;;;;;;7.93;5.55;;;23.70;76.10;;;;;;6238532;23;20000;-73
2023/06/08 11:18:04;;;;;;;7.53;4.97;;;23.80;76.10;;;;;;6213954;23;20004;-73
2023/06/08 11:20:30;;;;;;;7.45;4.68;;;23.80;75.80;;;;;;6240179;23;19992;-73
2023/06/08 11:22:55;;;;;;;7.43;4.85;;;23.80;75.80;;;;;;6240242;23;20004;-73
2023/06/08 11:25:25;;;;;;;8.30;4.65;;;23.90;75.70;;;;;;6240412;23;20043;-72
2023/06/08 11:27:53;;;;;;;12.55;5.97;;;23.90;75.30;;;;;;6239168;23;20508;-73
2023/06/08 11:30:19;;;;;;;10.35;4.57;;;23.90;74.70;;;;;;6214073;23;20027;-72
2023/06/08 11:32:47;;;;;;;8.07;5.38;;;24.00;75.20;;;;;;6240934;23;19997;-72
2023/06/08 11:35:13;;;;;;;6.28;4.60;;;24.00;74.60;;;;;;6240077;23;20008;-73
2023/06/08 11:37:41;;;;;;;7.47;3.42;;;24.00;74.60;;;;;;6239179;23;20524;-73
2023/06/08 11:40:14;;;;;;;8.10;5.32;;;24.10;74.50;;;;;;6241197;23;20436;-73
2023/06/08 11:42:41;;;;;;;5.03;3.85;;;24.20;73.60;;;;;;6214280;23;20453;-72
2023/06/08 11:45:09;;;;;;;5.63;4.05;;;24.20;73.60;;;;;;6241896;23;20035;-73
2023/06/08 11:47:35;;;;;;;6.85;4.70;;;24.20;73.40;;;;;;6242865;23;20076;-73
2023/06/08 11:50:03;;;;;;;6.40;4.50;;;24.20;73.50;;;;;;6241550;23;20016;-72
2023/06/08 11:52:33;;;;;;;5.50;4.45;;;24.30;72.80;;;;;;6243765;23;20052;-72
2023/06/08 11:55:01;;;;;;;9.45;6.05;;;24.30;73.20;;;;;;6244010;23;20083;-72
2023/06/08 11:57:44;;;;;;;7.15;4.20;;;24.30;73.20;;;;;;6244307;23;20008;-72
2023/06/08 12:00:18;;;;;;;8.32;5.00;;;24.40;73.30;;;;;;6215860;23;20004;-72
2023/06/08 12:02:49;;;;;;;7.22;4.85;;;24.40;73.00;;;;;;6244168;23;20035;-73
2023/06/08 12:05:22;;;;;;;6.75;4.30;;;24.50;72.70;;;;;;6243170;23;20360;-73
2023/06/08 12:08:02;;;;;;;13.38;6.32;;;24.50;72.60;;;;;;6243688;23;20000;-72
2023/06/08 12:10:41;;;;;;;6.18;5.03;;;24.50;72.00;;;;;;6215253;23;20004;-72
2023/06/08 12:13:13;;;;;;;5.78;4.65;;;24.50;72.80;;;;;;6243083;23;20457;-72
2023/06/08 12:15:43;;;;;;;7.57;4.93;;;24.60;73.10;;;;;;6244342;23;20035;-73
2023/06/08 12:18:12;;;;;;;4.40;3.72;;;24.60;72.30;;;;;;6244471;23;20050;-72
2023/06/08 12:20:39;;;;;;;6.88;4.60;;;24.70;72.50;;;;;;6242784;23;20000;-72
2023/06/08 12:23:05;;;;;;;8.05;5.05;;;24.70;72.50;;;;;;6215812;23;20004;-72
2023/06/08 12:25:31;;;;;;;7.35;4.80;;;24.70;72.20;;;;;;6244024;23;20426;-72
2023/06/08 12:27:57;;;;;;;14.77;5.95;;;24.80;72.10;;;;;;6216427;23;20123;-72
2023/06/08 12:30:23;;;;;;;7.20;5.13;;;24.80;71.50;;;;;;6243420;23;20091;-72
2023/06/08 12:32:50;;;;;;;6.30;5.03;;;24.80;71.50;;;;;;6241316;23;20081;-72
2023/06/08 12:35:16;;;;;;;8.80;5.38;;;24.80;71.70;;;;;;6243041;23;20010;-73